Weather at Njoro Airport

Public forecast

Using degrees Celsius for public forecast. Weather courtesy of forecast.io.

Closest aviation weather report (METAR) to Njoro Airport

Closest report is Nakuru Airport, 14.3 nm (26.4 km) E.

2022/12/04 04:00 (retrieved 1 hour ago)

HKNK 040400Z 00000KT CAVOK 13/12

Closest aviation forecast (TAF) to Njoro Airport

Forecast is more than 6 hours old.

Closest forecast is Eldoret International Airport, 59.7 nm (110.5 km) NW.

2022/12/03 18:54 (retrieved 10 hours ago)

TAF TAF HKEL 031700Z 0318/0424 12010KT CAVOK BECMG 0407/0410 14015KT 9999 FEW020 BECMG 0410/0414 FEW024CB BECMG 0420/0423 CAVOK